My Meet Scores
Tamia Davidson, Legacy Elite Gymnastics LLC - MyMeetScores.com
Top100 | Top Teams | Upcoming Meets | Completed Meets | Latest | Add Scores | Help| Support | Bookmark and Share

Tamia Davidson, Legacy Elite Gymnastics LLC
Personal Bests
LevelVault BarsBeamFloorAA
39.6509.575 9.1259.37537.025
49.0009.250 9.3759.40036.175
59.3509.325 9.0759.45037.075
79.5758.925 9.4509.60037.000
Meet Scores
Date Meet Team Session Level Division Vault Bars Beam Floor AA
2019-04-26 Level 7/8 Region 5 Regionals Legacy Elite Gymnastics LLC 7A 7 JRC1 9.575 10 8.400 29 9.325 14T 9.475 11T 36.775 22
2019-03-29 Illinois Level 7 & 8 State Meet Legacy Elite Gymnastics LLC 7 7 Jr D 9.100 12T 8.850 17 9.450 6 9.600 4T 37.000 7
2019-03-08 Lucky Invite Legacy Elite Gymnastics LLC A02 7 Jr B 8.425 18 8.725 15 8.700 10T 9.300 4 35.150 11
2019-02-22 Jaycie Phelps Midwest Showdown Legacy Elite Gymnastics LLC 1B 7 Junior B 8.875 3 8.100 13 9.150 11 9.300 4T 35.425 13
2019-02-15 Presidential Classic Legacy Elite Gymnastics LLC R1 7 L7 R1 g2 8.575 5T 8.500 13 8.225 11 9.275 7T 34.575 12
2019-01-25 King Arthur Invitational Legacy Elite Gymnastics LLC 10 7 CH 8.600 12 8.925 10 8.100 13 9.025 11 34.650 13
2019-01-11 Legacy Elite Classic FLIP 2A 7 JrB 8.950 5 8.800 9 8.175 7 9.325 5 35.250 5
2019-01-04 Leenda's Island Adventure Legacy Elite Gymnastics LLC P05 7 11 Year Ol 8.300 10T 8.600 9 8.475 9 9.150 4 34.525 9
2018-03-08 Level 4 & 5 State Legacy Elite Gymnastics LLC 11 5 Jr A 9.350 9 9.325 2T 9.075 13T 9.325 5T 37.075 5
2018-02-16 Big Classic Legacy Elite Gymnastics LLC 4A 5 Child B 9.025 5 8.300 16 8.425 8 9.450 3 35.200 9T
2018-01-26 2018 UGA Classic Legacy Elite - Aurora B6 5 Child 9.200 8T 9.050 9 8.750 9 9.250 5 36.250 7
2018-01-12 Legacy Elite Winter Classic Legacy Elite - Aurora 4 5 ChildB 9.350 2 9.050 1 7.850 7 9.100 2 35.350 4
2018-01-04 Leenda's Island Adventure Legacy Elite Gymnastics LLC P03 5 10 Year Ol 9.000 1 8.650 6 9.050 3 8.750 4 35.450 4
2017-03-10 2017 Illinois Level 4 State Championships American Institute of Gymnastics 3 4 Youth B 9.000 8T 8.900 16 8.300 27T 9.175 10T 35.375 16
2017-02-24 Kinetic Classic American Institute of Gymnastics 5,6 4 All Ages 8.700 68T 9.175 38T 8.650 104T 9.400 11T 35.925 55T
2017-02-10 IGI Chicago Style Gymnastics Meet American Institute of Gymnastics 632L 4 JrB 8.750 7 8.900 7 8.475 11 9.200 1 35.325 7
2017-01-27 2017 UGA Invitational American Institute of Gymnastics C10 4 Child 8.550 9T 8.900 12 9.300 5T 9.375 7T 36.125 10
2017-01-13 St Jude Benefit Meet American Institute of Gymnastics 5A 4 Jr B 8.100 15 9.100 7 9.375 4T 9.325 2 35.900 7
2017-01-05 Leenda's Island Adventure American Institute of Gymnastics P10 4 9 Year Old 8.400 6 9.250 5 9.225 3 9.300 1 36.175 2
2016-12-09 St. Nick Invite American Institute of Gymnastics 6 4 Junior 8.725 5 9.025 11 9.150 15T 9.200 7T 36.100 8
2016-03-04 2016 Illinois Level 3 State Championships American Institute of Gymnastics 3 Youth-E 9.625 8 9.400 10 8.725 10 9.175 11 36.925 9
2016-02-19 Midwest Open Womens 2016 American Institute of Gymnastics 2A 3 8 9.475 3 9.575 1 8.600 7 9.375 1 37.025 1
2016-02-05 St. Valentines Classic American Institute of Gymnastics 2A 3 All Ages 9.500 8T 8.950 17 8.825 18 9.000 5T 36.275 9
2016-01-08 St Jude Benefit Meet American Institute of Gymnastics 7A 3 Jr B 9.650 2 9.050 1T 9.125 3 9.200 5 37.025 2
2015-12-11 St. Nick Invite American Institute of Gymnastics 5B 3 All 9.275 4 9.325 6 8.650 14T 9.350 2T 36.600 5
Click here to view our personalized
"Celebrate Your Season"
2018-19 Collection

www.lazysuits.com